Terminal Aerodrome Forecast
Issued by NWS

Home | Current Version | Previous Version | Text Only | Print | Product List | Glossary On
Versions: 1 2 3 4 5 6 7 8 9 10 11 12 13 14 15 16 17 18 19
000
FTUS41 KRNK 251132
TAFLWB
TAF
KLWB 251132Z 2512/2612 00000KT 4SM BR SCT007
      TEMPO 2512/2513 1SM BR BKN007
     FM251400 24004KT P6SM SCT050 SCT250
     FM251600 25006KT P6SM BKN050 BKN100
     FM260000 24004KT P6SM VCSH BKN050 BKN100
      TEMPO 2608/2612 4SM BR=

USA.gov is the U.S. government's official web portal to all federal, state and local government web resources and services.